Time;durP1;ratioP1;P1;durP2;ratioP2;P2;SDS_P1;SDS_P2;PMS_P1;PMS_P2;Temp;Humidity;BMP_temperature;BMP_pressure;BME280_temperature;BME280_humidity;BME280_pressure;Samples;Min_cycle;Max_cycle;Signal;HPM_P1;HPM_P2
2022/01/27 00:01:09;;;;;;;21.45;7.53;;;;;;;;;;4921010;29;20044;-31
2022/01/27 00:03:48;;;;;;;19.20;8.35;;;;;;;;;;4921332;29;20119;-31
2022/01/27 00:06:16;;;;;;;18.95;11.02;;;;;;;;;;4920853;29;20029;-30
2022/01/27 00:11:18;;;;;;;16.27;7.97;;;;;;;;;;4920379;29;20047;-30
2022/01/27 00:13:59;;;;;;;20.08;8.10;;;;;;;;;;4920263;29;20040;-30
2022/01/27 00:16:29;;;;;;;14.05;8.20;;;;;;;;;;4920475;29;20059;-30
2022/01/27 00:18:56;;;;;;;19.42;7.60;;;;;;;;;;4919428;29;20119;-31
2022/01/27 00:21:25;;;;;;;14.63;8.02;;;;;;;;;;4920299;29;20059;-31
2022/01/27 00:23:51;;;;;;;15.73;7.75;;;;;;;;;;4920216;29;20364;-31
2022/01/27 00:26:18;;;;;;;18.80;8.32;;;;;;;;;;4920441;29;20032;-31
2022/01/27 00:28:45;;;;;;;19.52;8.60;;;;;;;;;;4920338;29;20400;-31
2022/01/27 00:31:12;;;;;;;11.48;7.50;;;;;;;;;;4920050;29;20044;-31
2022/01/27 00:33:38;;;;;;;12.90;7.55;;;;;;;;;;4920036;29;20039;-30
2022/01/27 00:36:05;;;;;;;30.60;9.07;;;;;;;;;;4920006;29;20032;-30
2022/01/27 00:38:31;;;;;;;14.25;8.15;;;;;;;;;;4920333;29;20088;-30
2022/01/27 00:40:58;;;;;;;21.75;8.13;;;;;;;;;;4919222;29;20032;-31
2022/01/27 00:43:25;;;;;;;15.18;7.45;;;;;;;;;;4919801;29;20028;-31
2022/01/27 00:45:51;;;;;;;18.17;8.07;;;;;;;;;;4920087;29;20024;-30
2022/01/27 00:48:17;;;;;;;15.13;8.52;;;;;;;;;;4919919;29;20028;-31
2022/01/27 00:50:48;;;;;;;8.88;7.93;;;;;;;;;;4920021;29;20068;-31
2022/01/27 00:53:28;;;;;;;12.93;9.13;;;;;;;;;;4919987;29;20032;-31
2022/01/27 00:55:58;;;;;;;21.05;7.35;;;;;;;;;;4919663;29;20458;-31
2022/01/27 00:58:50;;;;;;;15.75;8.25;;;;;;;;;;4919064;29;20461;-31
2022/01/27 01:01:20;;;;;;;14.43;8.23;;;;;;;;;;4920476;29;20028;-31
2022/01/27 01:03:49;;;;;;;12.25;7.32;;;;;;;;;;4919301;29;20106;-31
2022/01/27 01:06:24;;;;;;;20.52;7.95;;;;;;;;;;4919842;29;20091;-30
2022/01/27 01:11:52;;;;;;;14.85;7.03;;;;;;;;;;4919439;29;20039;-32
2022/01/27 01:14:47;;;;;;;11.20;7.63;;;;;;;;;;4919233;29;20058;-31
2022/01/27 01:30:34;;;;;;;18.73;8.73;;;;;;;;;;4919430;29;20061;-31
2022/01/27 01:33:04;;;;;;;13.52;7.25;;;;;;;;;;4919235;29;20392;-31
2022/01/27 01:35:48;;;;;;;12.80;6.93;;;;;;;;;;4918423;29;20036;-30
2022/01/27 01:38:19;;;;;;;16.40;7.75;;;;;;;;;;4919300;29;20107;-30
2022/01/27 01:40:49;;;;;;;12.18;7.65;;;;;;;;;;4919220;29;20035;-31
2022/01/27 01:43:16;;;;;;;13.07;8.70;;;;;;;;;;4919120;29;20108;-32
2022/01/27 01:45:43;;;;;;;15.65;7.63;;;;;;;;;;4918877;29;20039;-31
2022/01/27 01:48:09;;;;;;;15.57;8.20;;;;;;;;;;4918819;29;20032;-31
2022/01/27 01:50:36;;;;;;;12.85;7.47;;;;;;;;;;4918782;29;20357;-30
2022/01/27 01:53:02;;;;;;;19.42;7.88;;;;;;;;;;4918878;29;20032;-31
2022/01/27 01:55:31;;;;;;;18.63;8.40;;;;;;;;;;4918919;29;20032;-31
2022/01/27 01:57:57;;;;;;;12.70;9.23;;;;;;;;;;4918969;29;20430;-31
2022/01/27 02:00:24;;;;;;;10.15;8.02;;;;;;;;;;4918629;29;20056;-30
2022/01/27 02:02:50;;;;;;;9.07;7.13;;;;;;;;;;4918531;29;20039;-31
2022/01/27 02:05:17;;;;;;;18.85;8.48;;;;;;;;;;4918379;29;20048;-30
2022/01/27 02:08:15;;;;;;;18.50;8.18;;;;;;;;;;4918275;29;20036;-31
2022/01/27 02:19:10;;;;;;;12.63;6.63;;;;;;;;;;4918954;29;20051;-30
2022/01/27 02:21:50;;;;;;;15.65;7.72;;;;;;;;;;4918392;29;20032;-30
2022/01/27 02:24:18;;;;;;;11.07;6.95;;;;;;;;;;4918608;29;20036;-30
2022/01/27 02:26:44;;;;;;;18.45;7.60;;;;;;;;;;4918319;29;20031;-31
2022/01/27 02:29:11;;;;;;;7.60;6.65;;;;;;;;;;4918298;29;20111;-31
2022/01/27 02:31:37;;;;;;;10.77;7.03;;;;;;;;;;4918195;29;20032;-30
2022/01/27 02:34:05;;;;;;;12.00;6.65;;;;;;;;;;4918163;29;20063;-30
2022/01/27 02:36:32;;;;;;;13.57;6.85;;;;;;;;;;4918121;29;20040;-31
2022/01/27 02:38:59;;;;;;;14.32;8.18;;;;;;;;;;4918438;29;20028;-31
2022/01/27 02:41:27;;;;;;;11.82;6.50;;;;;;;;;;4918381;29;20028;-31
2022/01/27 02:43:56;;;;;;;12.18;7.57;;;;;;;;;;4917973;29;20028;-30
2022/01/27 02:46:26;;;;;;;13.65;7.75;;;;;;;;;;4918003;29;20482;-30
2022/01/27 02:48:52;;;;;;;11.85;8.15;;;;;;;;;;4918370;29;20043;-30
2022/01/27 02:51:19;;;;;;;13.38;7.13;;;;;;;;;;4918073;29;20036;-30
2022/01/27 02:53:45;;;;;;;10.20;7.30;;;;;;;;;;4918083;29;20032;-30
2022/01/27 02:56:11;;;;;;;15.57;7.80;;;;;;;;;;4918074;29;20476;-30
2022/01/27 02:58:37;;;;;;;9.25;7.18;;;;;;;;;;4918010;29;20032;-31
2022/01/27 03:01:04;;;;;;;16.88;7.40;;;;;;;;;;4918061;29;20075;-30
2022/01/27 03:03:31;;;;;;;11.65;7.20;;;;;;;;;;4917949;29;20032;-31
2022/01/27 03:05:57;;;;;;;12.25;7.60;;;;;;;;;;4918534;29;20391;-31
2022/01/27 03:08:23;;;;;;;11.77;7.35;;;;;;;;;;4917960;29;20028;-30
2022/01/27 03:10:53;;;;;;;11.35;7.32;;;;;;;;;;4917898;29;20327;-30
2022/01/27 03:13:20;;;;;;;15.38;8.23;;;;;;;;;;4916928;29;20020;-31
2022/01/27 03:15:46;;;;;;;13.15;6.55;;;;;;;;;;4918192;29;20036;-30
2022/01/27 03:18:12;;;;;;;10.48;7.55;;;;;;;;;;4918123;29;20107;-30
2022/01/27 03:20:39;;;;;;;18.42;7.78;;;;;;;;;;4919078;29;20512;-31
2022/01/27 03:23:07;;;;;;;16.23;7.32;;;;;;;;;;4921327;29;20036;-31
2022/01/27 03:25:33;;;;;;;9.52;7.25;;;;;;;;;;4921317;29;20478;-29
2022/01/27 03:27:59;;;;;;;14.55;7.55;;;;;;;;;;4920401;29;20120;-30
2022/01/27 03:30:26;;;;;;;9.70;6.63;;;;;;;;;;4921291;29;20047;-32
2022/01/27 03:32:52;;;;;;;13.65;7.35;;;;;;;;;;4921176;29;20036;-30
2022/01/27 03:35:18;;;;;;;12.43;8.15;;;;;;;;;;4921803;29;20028;-30
2022/01/27 03:37:44;;;;;;;10.50;7.10;;;;;;;;;;4921445;29;20119;-29
2022/01/27 03:40:11;;;;;;;15.30;7.43;;;;;;;;;;4921431;29;20092;-29
2022/01/27 03:42:44;;;;;;;12.05;7.28;;;;;;;;;;4921037;29;20060;-29
2022/01/27 03:45:10;;;;;;;12.80;6.95;;;;;;;;;;4921374;29;20046;-31
2022/01/27 03:47:37;;;;;;;10.38;6.47;;;;;;;;;;4921029;29;20043;-33
2022/01/27 03:50:03;;;;;;;13.00;6.72;;;;;;;;;;4921523;29;20039;-30
2022/01/27 03:52:29;;;;;;;10.68;6.65;;;;;;;;;;4921088;29;20028;-30
2022/01/27 03:54:56;;;;;;;16.17;7.80;;;;;;;;;;4921164;29;20028;-30
2022/01/27 03:57:22;;;;;;;8.25;6.63;;;;;;;;;;4921365;29;20451;-29
2022/01/27 03:59:48;;;;;;;9.05;7.35;;;;;;;;;;4920774;29;20028;-30
2022/01/27 04:02:16;;;;;;;10.38;7.10;;;;;;;;;;4920657;29;20371;-30
2022/01/27 04:04:42;;;;;;;12.85;6.88;;;;;;;;;;4920654;29;20472;-29
2022/01/27 04:07:08;;;;;;;12.88;8.57;;;;;;;;;;4919704;29;20452;-29
2022/01/27 04:09:34;;;;;;;11.65;6.60;;;;;;;;;;4920557;29;20040;-29
2022/01/27 04:12:01;;;;;;;10.85;6.38;;;;;;;;;;4920388;29;20043;-31
2022/01/27 04:14:27;;;;;;;10.18;6.95;;;;;;;;;;4920503;29;20025;-32
2022/01/27 04:16:53;;;;;;;12.70;7.95;;;;;;;;;;4920716;29;20044;-32
2022/01/27 04:19:19;;;;;;;13.52;7.28;;;;;;;;;;4920448;29;20500;-29
2022/01/27 04:21:45;;;;;;;10.18;6.82;;;;;;;;;;4920376;29;20028;-30
2022/01/27 04:24:15;;;;;;;8.07;7.15;;;;;;;;;;4920577;29;20044;-31
2022/01/27 04:26:46;;;;;;;7.05;6.28;;;;;;;;;;4920593;29;20107;-30
2022/01/27 04:29:13;;;;;;;7.43;6.50;;;;;;;;;;4920630;29;20032;-34
2022/01/27 04:31:42;;;;;;;7.85;6.07;;;;;;;;;;4919901;29;20047;-30
2022/01/27 04:34:09;;;;;;;11.25;8.38;;;;;;;;;;4920622;29;20028;-32
2022/01/27 04:36:35;;;;;;;10.02;6.85;;;;;;;;;;4920201;29;20039;-29
2022/01/27 04:39:16;;;;;;;8.68;6.30;;;;;;;;;;4920319;29;20032;-31
2022/01/27 04:41:56;;;;;;;10.20;6.65;;;;;;;;;;4920353;29;20028;-29
2022/01/27 04:44:33;;;;;;;9.10;7.68;;;;;;;;;;4920290;29;20413;-30
2022/01/27 04:47:06;;;;;;;11.45;7.03;;;;;;;;;;4920216;29;20048;-29
2022/01/27 04:49:33;;;;;;;10.30;7.18;;;;;;;;;;4919903;29;20051;-31
2022/01/27 04:51:59;;;;;;;8.20;6.45;;;;;;;;;;4919743;29;20097;-32
2022/01/27 04:54:35;;;;;;;12.60;6.53;;;;;;;;;;4918681;29;20048;-29
2022/01/27 04:57:04;;;;;;;8.68;6.60;;;;;;;;;;4919695;29;20036;-29
2022/01/27 04:59:36;;;;;;;8.38;6.65;;;;;;;;;;4919812;29;20032;-29
2022/01/27 05:02:08;;;;;;;16.13;6.78;;;;;;;;;;4919849;29;20047;-30
2022/01/27 05:04:40;;;;;;;12.68;7.35;;;;;;;;;;4919549;29;20365;-31
2022/01/27 05:07:06;;;;;;;8.30;6.90;;;;;;;;;;4919673;29;20051;-28
2022/01/27 05:09:34;;;;;;;6.65;6.10;;;;;;;;;;4919254;29;20040;-34
2022/01/27 05:12:12;;;;;;;7.97;6.82;;;;;;;;;;4919425;29;20047;-29
2022/01/27 05:14:38;;;;;;;12.18;6.65;;;;;;;;;;4919359;29;20136;-30
2022/01/27 05:17:04;;;;;;;7.78;6.40;;;;;;;;;;4919426;29;20343;-32
2022/01/27 05:19:30;;;;;;;8.48;6.38;;;;;;;;;;4918958;29;20058;-30
2022/01/27 05:21:56;;;;;;;6.20;5.70;;;;;;;;;;4919258;29;20356;-31
2022/01/27 05:24:23;;;;;;;7.68;6.82;;;;;;;;;;4919121;29;20077;-31
2022/01/27 05:26:49;;;;;;;8.40;6.13;;;;;;;;;;4919553;29;20025;-33
2022/01/27 05:29:15;;;;;;;11.02;6.53;;;;;;;;;;4919006;29;20028;-32
2022/01/27 05:31:43;;;;;;;7.22;6.47;;;;;;;;;;4918906;29;20032;-30
2022/01/27 05:34:09;;;;;;;8.77;6.30;;;;;;;;;;4918813;29;20034;-32
2022/01/27 05:36:35;;;;;;;8.30;6.55;;;;;;;;;;4919152;29;20363;-31
2022/01/27 05:39:03;;;;;;;10.00;6.65;;;;;;;;;;4918806;29;20057;-30
2022/01/27 05:41:29;;;;;;;7.82;6.40;;;;;;;;;;4918667;29;20047;-32
2022/01/27 05:43:56;;;;;;;11.85;5.78;;;;;;;;;;4918404;29;20035;-31
2022/01/27 05:46:22;;;;;;;8.98;6.53;;;;;;;;;;4918818;29;20144;-33
2022/01/27 05:48:48;;;;;;;12.50;6.93;;;;;;;;;;4918750;29;20369;-34
2022/01/27 05:51:15;;;;;;;7.07;6.38;;;;;;;;;;4918606;29;20028;-34
2022/01/27 05:53:41;;;;;;;7.20;5.55;;;;;;;;;;4918643;29;20368;-31
2022/01/27 05:56:07;;;;;;;11.82;6.55;;;;;;;;;;4918684;29;20059;-31
2022/01/27 05:58:34;;;;;;;9.18;6.18;;;;;;;;;;4918803;29;20032;-32
2022/01/27 06:03:42;;;;;;;11.77;7.10;;;;;;;;;;5079458;23;20149;-29
2022/01/27 06:06:08;;;;;;;11.70;6.90;;;;;;;;;;4918615;29;20031;-31
2022/01/27 06:08:35;;;;;;;11.35;6.53;;;;;;;;;;4918484;29;20470;-29
2022/01/27 06:11:01;;;;;;;17.80;6.68;;;;;;;;;;4918454;29;20021;-31
2022/01/27 06:13:28;;;;;;;8.52;6.82;;;;;;;;;;4918461;29;20103;-30
2022/01/27 06:15:54;;;;;;;17.33;7.00;;;;;;;;;;4918678;29;20028;-30
2022/01/27 06:18:20;;;;;;;9.70;5.93;;;;;;;;;;4918435;29;20032;-30
2022/01/27 06:20:47;;;;;;;8.40;5.93;;;;;;;;;;4918360;29;20031;-32
2022/01/27 06:23:14;;;;;;;11.70;6.63;;;;;;;;;;4918114;29;20494;-30
2022/01/27 06:25:40;;;;;;;12.15;7.07;;;;;;;;;;4918321;29;20028;-30
2022/01/27 06:28:06;;;;;;;13.95;6.18;;;;;;;;;;4918564;29;20036;-30
2022/01/27 06:30:34;;;;;;;8.25;6.07;;;;;;;;;;4919016;29;20064;-30
2022/01/27 06:33:02;;;;;;;12.07;6.15;;;;;;;;;;4918330;29;20047;-31
2022/01/27 06:35:28;;;;;;;13.10;5.82;;;;;;;;;;4918317;29;20028;-30
2022/01/27 06:37:54;;;;;;;14.30;6.85;;;;;;;;;;4918448;29;20364;-30
2022/01/27 06:40:20;;;;;;;12.40;6.13;;;;;;;;;;4919004;29;20028;-30
2022/01/27 06:42:47;;;;;;;13.35;5.95;;;;;;;;;;4918196;29;20039;-29
2022/01/27 06:45:13;;;;;;;7.95;5.63;;;;;;;;;;4918709;29;20024;-31
2022/01/27 06:47:40;;;;;;;9.25;6.03;;;;;;;;;;4918031;29;20039;-30
2022/01/27 06:50:07;;;;;;;11.73;6.38;;;;;;;;;;4918784;29;20032;-30
2022/01/27 06:52:34;;;;;;;7.30;5.30;;;;;;;;;;4917959;29;20038;-31
2022/01/27 06:55:03;;;;;;;9.35;6.32;;;;;;;;;;4920260;29;20059;-30
2022/01/27 06:57:29;;;;;;;16.25;8.10;;;;;;;;;;4921797;29;20028;-30
2022/01/27 06:59:55;;;;;;;7.97;5.25;;;;;;;;;;4921738;29;20025;-32
2022/01/27 07:02:21;;;;;;;7.95;6.30;;;;;;;;;;4921976;29;20123;-30
2022/01/27 07:04:47;;;;;;;11.32;5.55;;;;;;;;;;4921748;29;20080;-30
2022/01/27 07:07:13;;;;;;;10.40;6.63;;;;;;;;;;4921628;29;20031;-30
2022/01/27 07:09:40;;;;;;;8.15;5.68;;;;;;;;;;4921985;29;20039;-29
2022/01/27 07:12:07;;;;;;;9.13;6.22;;;;;;;;;;4921673;29;20375;-30
2022/01/27 07:14:33;;;;;;;9.70;6.25;;;;;;;;;;4921563;29;20115;-30
2022/01/27 07:17:00;;;;;;;11.70;6.43;;;;;;;;;;4921327;29;20040;-30
2022/01/27 07:19:27;;;;;;;8.98;5.57;;;;;;;;;;4921296;29;20029;-30
2022/01/27 07:21:53;;;;;;;13.15;6.15;;;;;;;;;;4921342;29;20039;-30
2022/01/27 07:24:19;;;;;;;13.23;6.05;;;;;;;;;;4920415;29;20055;-29
2022/01/27 07:26:45;;;;;;;10.18;6.40;;;;;;;;;;4921316;29;20024;-30
2022/01/27 07:29:11;;;;;;;13.85;6.25;;;;;;;;;;4921528;29;20108;-30
2022/01/27 07:31:37;;;;;;;12.80;6.55;;;;;;;;;;4921105;29;20103;-32
2022/01/27 07:34:04;;;;;;;8.13;6.43;;;;;;;;;;4921114;29;20035;-31
2022/01/27 07:36:31;;;;;;;11.88;5.90;;;;;;;;;;4921070;29;20039;-30
2022/01/27 07:38:57;;;;;;;7.57;6.22;;;;;;;;;;4920881;29;20028;-29
2022/01/27 07:41:24;;;;;;;10.45;6.78;;;;;;;;;;4921202;29;20039;-31
2022/01/27 07:43:50;;;;;;;7.65;5.47;;;;;;;;;;4921054;29;20396;-31
2022/01/27 07:46:17;;;;;;;9.20;6.20;;;;;;;;;;4921615;29;20103;-31
2022/01/27 07:48:43;;;;;;;7.38;5.78;;;;;;;;;;4921180;29;20028;-31
2022/01/27 07:51:10;;;;;;;8.35;6.28;;;;;;;;;;4920661;29;20040;-29
2022/01/27 07:53:37;;;;;;;13.30;5.97;;;;;;;;;;4920584;29;20032;-30
2022/01/27 07:56:04;;;;;;;11.65;7.18;;;;;;;;;;4920738;29;20159;-31
2022/01/27 07:58:31;;;;;;;12.27;6.00;;;;;;;;;;4921054;29;20032;-30
2022/01/27 08:00:58;;;;;;;10.70;5.95;;;;;;;;;;4921786;29;20335;-30
2022/01/27 08:03:24;;;;;;;8.32;5.60;;;;;;;;;;4919478;29;20070;-30
2022/01/27 08:05:51;;;;;;;7.78;5.82;;;;;;;;;;4920324;29;20047;-31
2022/01/27 08:08:17;;;;;;;12.57;6.97;;;;;;;;;;4920658;29;20103;-31
2022/01/27 08:10:44;;;;;;;10.90;6.60;;;;;;;;;;4920438;29;20028;-30
2022/01/27 08:13:11;;;;;;;13.90;6.90;;;;;;;;;;4920145;29;20036;-29
2022/01/27 08:15:37;;;;;;;9.07;5.03;;;;;;;;;;4920620;29;20039;-31
2022/01/27 08:18:04;;;;;;;11.90;6.13;;;;;;;;;;4920648;29;20039;-31
2022/01/27 08:20:31;;;;;;;6.72;5.45;;;;;;;;;;4920286;29;20039;-31
2022/01/27 08:22:58;;;;;;;9.52;5.30;;;;;;;;;;4920349;29;20111;-31
2022/01/27 08:25:25;;;;;;;12.75;5.70;;;;;;;;;;4920289;29;20027;-31
2022/01/27 08:27:55;;;;;;;15.45;6.28;;;;;;;;;;4920503;29;20048;-32
2022/01/27 08:30:25;;;;;;;8.90;6.00;;;;;;;;;;4920462;29;20112;-31
2022/01/27 08:32:58;;;;;;;11.57;6.15;;;;;;;;;;4920240;29;20043;-30
2022/01/27 08:35:25;;;;;;;10.68;5.97;;;;;;;;;;4920044;29;20036;-29
2022/01/27 08:37:52;;;;;;;7.88;5.47;;;;;;;;;;4920504;29;20032;-31
2022/01/27 08:40:19;;;;;;;10.35;5.45;;;;;;;;;;4920218;29;20499;-31
2022/01/27 08:42:46;;;;;;;9.70;5.65;;;;;;;;;;4918968;29;20074;-31
2022/01/27 08:45:13;;;;;;;9.98;7.55;;;;;;;;;;4919934;29;20506;-31
2022/01/27 08:47:40;;;;;;;8.95;6.22;;;;;;;;;;4919834;29;20472;-31
2022/01/27 08:50:08;;;;;;;12.05;5.93;;;;;;;;;;4920084;29;20088;-31
2022/01/27 08:52:36;;;;;;;13.48;7.55;;;;;;;;;;4919682;29;20028;-32
2022/01/27 08:55:03;;;;;;;10.45;5.97;;;;;;;;;;4919762;29;20039;-30
2022/01/27 08:57:30;;;;;;;11.30;5.15;;;;;;;;;;4920161;29;20050;-33
2022/01/27 08:59:56;;;;;;;9.65;6.50;;;;;;;;;;4919871;29;20024;-30
2022/01/27 09:02:25;;;;;;;14.30;6.95;;;;;;;;;;4919725;29;20040;-32
2022/01/27 09:04:52;;;;;;;9.88;5.72;;;;;;;;;;4919872;29;20420;-32
2022/01/27 09:07:19;;;;;;;14.85;7.18;;;;;;;;;;4919340;29;20032;-30
2022/01/27 09:09:46;;;;;;;12.00;5.97;;;;;;;;;;4918514;29;20028;-31
2022/01/27 09:12:13;;;;;;;12.05;6.43;;;;;;;;;;4919480;29;20028;-31
2022/01/27 09:14:42;;;;;;;13.30;6.32;;;;;;;;;;4919580;29;20024;-31
2022/01/27 09:17:09;;;;;;;11.52;6.30;;;;;;;;;;4919113;29;20032;-31
2022/01/27 09:19:40;;;;;;;9.52;6.25;;;;;;;;;;4918614;29;20024;-32
2022/01/27 09:22:08;;;;;;;15.05;7.40;;;;;;;;;;4919218;29;20109;-30
2022/01/27 09:24:47;;;;;;;6.65;5.38;;;;;;;;;;4919233;29;20020;-31
2022/01/27 09:27:14;;;;;;;14.13;6.47;;;;;;;;;;4919037;29;20102;-32
2022/01/27 09:29:40;;;;;;;10.52;5.90;;;;;;;;;;4919355;29;20380;-31
2022/01/27 09:32:06;;;;;;;16.33;6.55;;;;;;;;;;4919226;29;20459;-32
2022/01/27 09:34:33;;;;;;;8.98;5.85;;;;;;;;;;4919027;29;20035;-30
2022/01/27 09:37:02;;;;;;;11.00;6.05;;;;;;;;;;4918899;29;20028;-30
2022/01/27 09:39:29;;;;;;;22.33;7.20;;;;;;;;;;4918942;29;20024;-32
2022/01/27 09:41:56;;;;;;;16.00;7.15;;;;;;;;;;4918885;29;20027;-30
2022/01/27 09:44:28;;;;;;;23.35;7.45;;;;;;;;;;4918799;29;20095;-31
2022/01/27 09:46:57;;;;;;;34.97;6.70;;;;;;;;;;4919127;29;20120;-31
2022/01/27 09:49:33;;;;;;;14.35;6.10;;;;;;;;;;4919060;29;20339;-31
2022/01/27 09:51:59;;;;;;;28.67;6.43;;;;;;;;;;4918509;29;20044;-31
2022/01/27 09:54:25;;;;;;;9.98;5.75;;;;;;;;;;4918894;29;20044;-32
2022/01/27 09:56:53;;;;;;;9.55;5.60;;;;;;;;;;4918628;29;20040;-31
2022/01/27 09:59:20;;;;;;;34.20;6.30;;;;;;;;;;4919202;29;20035;-30
2022/01/27 10:02:01;;;;;;;31.70;6.75;;;;;;;;;;4919242;29;20032;-29
2022/01/27 10:04:43;;;;;;;27.27;6.13;;;;;;;;;;4918503;29;20063;-30
2022/01/27 10:07:09;;;;;;;21.17;6.38;;;;;;;;;;4918372;29;20412;-30
2022/01/27 10:09:36;;;;;;;19.20;5.75;;;;;;;;;;4918706;29;20107;-29
2022/01/27 10:12:04;;;;;;;13.98;5.97;;;;;;;;;;4918463;29;20047;-31
2022/01/27 10:14:34;;;;;;;16.13;6.10;;;;;;;;;;4918573;29;20482;-30
2022/01/27 10:17:03;;;;;;;57.00;8.70;;;;;;;;;;4918157;29;20098;-33
2022/01/27 10:19:30;;;;;;;14.20;6.40;;;;;;;;;;4918439;29;20028;-31
2022/01/27 10:22:00;;;;;;;18.20;7.10;;;;;;;;;;4918102;29;20036;-31
2022/01/27 10:24:29;;;;;;;14.00;5.80;;;;;;;;;;4918219;29;20043;-31
2022/01/27 10:27:45;;;;;;;12.02;6.32;;;;;;;;;;4917979;29;20036;-31
2022/01/27 10:30:49;;;;;;;15.13;5.75;;;;;;;;;;4917484;29;20044;-31
2022/01/27 10:33:00;;;;;;;14.25;5.93;;;;;;;;;;4914970;29;20040;-31
2022/01/27 10:35:26;;;;;;;22.05;5.90;;;;;;;;;;4918067;29;20132;-31
2022/01/27 10:37:56;;;;;;;10.52;5.13;;;;;;;;;;4918338;29;20103;-31
2022/01/27 10:40:23;;;;;;;13.32;6.38;;;;;;;;;;4917989;29;20024;-31
2022/01/27 10:42:59;;;;;;;14.98;5.20;;;;;;;;;;4917878;29;20091;-31
2022/01/27 10:45:26;;;;;;;13.57;5.78;;;;;;;;;;4916887;29;20111;-31
2022/01/27 10:47:52;;;;;;;11.63;5.45;;;;;;;;;;4918081;29;20025;-31
2022/01/27 10:50:21;;;;;;;16.15;6.63;;;;;;;;;;4917473;29;20037;-31
2022/01/27 10:52:52;;;;;;;10.98;5.72;;;;;;;;;;4917913;29;20378;-30
2022/01/27 10:55:19;;;;;;;;;;;;;;;;;;4918567;29;20051;-31
2022/01/27 11:01:00;;;;;;;11.80;5.13;;;;;;;;;;4917803;29;20376;-31
2022/01/27 11:03:27;;;;;;;12.33;6.20;;;;;;;;;;4917691;29;20115;-30
2022/01/27 11:05:54;;;;;;;23.25;5.68;;;;;;;;;;4916625;29;20467;-31
2022/01/27 11:08:23;;;;;;;14.32;5.50;;;;;;;;;;4917675;29;20055;-29
2022/01/27 11:10:50;;;;;;;16.75;6.25;;;;;;;;;;4917408;29;20403;-30
2022/01/27 11:13:19;;;;;;;18.85;6.50;;;;;;;;;;4917912;29;20061;-30
2022/01/27 11:15:45;;;;;;;12.75;5.68;;;;;;;;;;4917886;29;20059;-30
2022/01/27 11:18:15;;;;;;;17.65;6.63;;;;;;;;;;4917597;29;20032;-30
2022/01/27 11:25:52;;;;;;;18.38;6.00;;;;;;;;;;4916811;29;20039;-31
2022/01/27 11:28:19;;;;;;;14.40;5.50;;;;;;;;;;4917680;29;20036;-33
2022/01/27 11:31:07;;;;;;;10.90;5.45;;;;;;;;;;4917639;29;20065;-30
2022/01/27 11:33:34;;;;;;;34.13;7.60;;;;;;;;;;4917795;29;20463;-30
2022/01/27 11:36:08;;;;;;;33.15;9.02;;;;;;;;;;4917564;29;20032;-32
2022/01/27 11:38:34;;;;;;;20.67;6.32;;;;;;;;;;4917721;29;20040;-30
2022/01/27 11:41:00;;;;;;;15.32;5.15;;;;;;;;;;4918211;29;20028;-31
2022/01/27 11:43:38;;;;;;;20.02;5.47;;;;;;;;;;4921040;29;20036;-31
2022/01/27 11:46:15;;;;;;;13.10;5.50;;;;;;;;;;4921009;29;20043;-31
2022/01/27 11:48:42;;;;;;;20.75;5.65;;;;;;;;;;4921019;29;20040;-31
2022/01/27 11:51:12;;;;;;;20.00;6.43;;;;;;;;;;4921172;29;20104;-30
2022/01/27 11:53:42;;;;;;;10.10;4.90;;;;;;;;;;4920600;29;20103;-31
2022/01/27 11:56:26;;;;;;;35.28;8.73;;;;;;;;;;4921171;29;20225;-31
2022/01/27 11:58:54;;;;;;;16.67;5.50;;;;;;;;;;4921029;29;20033;-30
2022/01/27 12:01:27;;;;;;;7.30;4.97;;;;;;;;;;4920902;29;20024;-33
2022/01/27 12:04:08;;;;;;;13.90;5.05;;;;;;;;;;4920494;29;20067;-34
2022/01/27 12:06:49;;;;;;;16.02;4.95;;;;;;;;;;4920937;29;20039;-29
2022/01/27 12:09:19;;;;;;;14.60;5.20;;;;;;;;;;4920847;29;20038;-32
2022/01/27 12:12:01;;;;;;;20.35;5.03;;;;;;;;;;4920286;29;20455;-30
2022/01/27 12:14:30;;;;;;;17.23;5.03;;;;;;;;;;4920418;29;20127;-28
2022/01/27 12:17:22;;;;;;;12.07;5.57;;;;;;;;;;4920286;29;20032;-29
2022/01/27 12:19:50;;;;;;;15.35;4.80;;;;;;;;;;4918593;29;20040;-29
2022/01/27 12:22:18;;;;;;;14.43;5.65;;;;;;;;;;4920350;29;20040;-31
2022/01/27 12:24:52;;;;;;;14.10;5.32;;;;;;;;;;4919936;29;20039;-30
2022/01/27 12:27:23;;;;;;;12.85;4.80;;;;;;;;;;4920379;29;20060;-30
2022/01/27 12:29:57;;;;;;;10.27;5.40;;;;;;;;;;4920022;29;20091;-29
2022/01/27 12:32:30;;;;;;;14.95;5.82;;;;;;;;;;4919944;29;20039;-29
2022/01/27 12:35:01;;;;;;;16.63;6.75;;;;;;;;;;4920231;29;20535;-30
2022/01/27 12:37:27;;;;;;;;;;;;;;;;;;4920525;29;20107;-30
2022/01/27 12:39:55;;;;;;;11.18;5.65;;;;;;;;;;4920305;29;20354;-31
2022/01/27 12:42:25;;;;;;;7.82;4.65;;;;;;;;;;4919924;29;20039;-30
2022/01/27 12:44:54;;;;;;;18.75;5.65;;;;;;;;;;4920122;29;20038;-31
2022/01/27 12:47:20;;;;;;;13.93;4.90;;;;;;;;;;4920037;29;20067;-32
2022/01/27 12:49:48;;;;;;;14.30;5.22;;;;;;;;;;4920034;29;20028;-32
2022/01/27 12:52:27;;;;;;;19.85;5.35;;;;;;;;;;4918480;29;20036;-30
2022/01/27 12:54:53;;;;;;;20.73;6.57;;;;;;;;;;4920360;29;20036;-31
2022/01/27 12:57:23;;;;;;;16.27;5.93;;;;;;;;;;4919413;29;20043;-31
2022/01/27 12:59:52;;;;;;;16.73;5.72;;;;;;;;;;4919164;29;20076;-31
2022/01/27 13:02:19;;;;;;;15.40;4.65;;;;;;;;;;4919130;29;20047;-30
2022/01/27 13:04:46;;;;;;;22.38;5.57;;;;;;;;;;4919332;29;20043;-31
2022/01/27 13:07:12;;;;;;;9.25;4.93;;;;;;;;;;4918417;29;20036;-32
2022/01/27 13:09:39;;;;;;;12.80;5.50;;;;;;;;;;4919470;29;20032;-29
2022/01/27 13:12:18;;;;;;;17.77;5.28;;;;;;;;;;4919316;29;20028;-31
2022/01/27 13:14:59;;;;;;;13.88;5.47;;;;;;;;;;4919398;29;20464;-31
2022/01/27 13:17:33;;;;;;;17.40;6.35;;;;;;;;;;4919417;29;20071;-30
2022/01/27 13:20:11;;;;;;;16.58;4.53;;;;;;;;;;4919440;29;20094;-31
2022/01/27 13:22:51;;;;;;;13.82;4.95;;;;;;;;;;4919161;29;20032;-31
2022/01/27 13:25:20;;;;;;;12.40;5.80;;;;;;;;;;4919269;29;20035;-31
2022/01/27 13:28:01;;;;;;;16.35;6.10;;;;;;;;;;4919443;29;20063;-32
2022/01/27 13:30:27;;;;;;;;;;;;;;;;;;4920187;29;20020;-31
2022/01/27 13:32:54;;;;;;;9.20;5.20;;;;;;;;;;4919093;29;19915;-31
2022/01/27 13:35:20;;;;;;;14.35;6.18;;;;;;;;;;4918992;29;20028;-31
2022/01/27 13:37:46;;;;;;;14.70;5.03;;;;;;;;;;4918928;29;20047;-31
2022/01/27 13:43:11;;;;;;;17.30;5.57;;;;;;;;;;4919046;29;20046;-30
2022/01/27 13:45:37;;;;;;;13.65;5.25;;;;;;;;;;4918615;29;20028;-31
2022/01/27 13:48:22;;;;;;;16.10;5.10;;;;;;;;;;4918677;29;20036;-31
2022/01/27 13:50:52;;;;;;;10.50;4.43;;;;;;;;;;4918768;29;20519;-31
2022/01/27 13:53:20;;;;;;;15.23;5.22;;;;;;;;;;4918363;29;20103;-32
2022/01/27 13:55:55;;;;;;;16.02;5.05;;;;;;;;;;4918860;29;20483;-30
2022/01/27 13:58:26;;;;;;;25.38;5.47;;;;;;;;;;4917894;29;20088;-30
2022/01/27 14:01:03;;;;;;;10.82;4.82;;;;;;;;;;4918568;29;20023;-29
2022/01/27 14:03:39;;;;;;;12.45;4.45;;;;;;;;;;4918252;29;20384;-31
2022/01/27 14:06:06;;;;;;;21.10;5.38;;;;;;;;;;4918408;29;20110;-33
2022/01/27 14:08:36;;;;;;;18.58;5.68;;;;;;;;;;4918476;29;20039;-31
2022/01/27 14:11:02;;;;;;;15.23;6.82;;;;;;;;;;4918753;29;20035;-33
2022/01/27 14:13:28;;;;;;;15.65;4.22;;;;;;;;;;4917365;29;20091;-32
2022/01/27 14:15:55;;;;;;;13.15;4.93;;;;;;;;;;4918808;29;20024;-32
2022/01/27 14:18:23;;;;;;;14.45;5.50;;;;;;;;;;4918634;29;20028;-32
2022/01/27 14:20:51;;;;;;;14.48;5.25;;;;;;;;;;4918720;29;20028;-29
2022/01/27 14:23:23;;;;;;;17.52;4.32;;;;;;;;;;4918371;29;20070;-31
2022/01/27 14:25:56;;;;;;;11.90;4.95;;;;;;;;;;4918463;29;20103;-31
2022/01/27 14:28:22;;;;;;;16.00;4.78;;;;;;;;;;4917638;29;20043;-30
2022/01/27 14:30:49;;;;;;;12.73;4.80;;;;;;;;;;4918433;29;20070;-32
2022/01/27 14:33:15;;;;;;;18.73;5.45;;;;;;;;;;4918228;29;20107;-31
2022/01/27 14:35:44;;;;;;;9.35;4.28;;;;;;;;;;4918324;29;20043;-29
2022/01/27 14:38:10;;;;;;;13.40;4.80;;;;;;;;;;4918198;29;20024;-31
2022/01/27 14:40:38;;;;;;;14.85;5.68;;;;;;;;;;4918317;29;20028;-31
2022/01/27 14:43:04;;;;;;;18.20;5.65;;;;;;;;;;4918152;29;20043;-33
2022/01/27 14:45:30;;;;;;;17.60;4.60;;;;;;;;;;4918259;29;20055;-31
2022/01/27 14:48:03;;;;;;;12.05;4.43;;;;;;;;;;4918542;29;20183;-31
2022/01/27 14:50:30;;;;;;;20.17;5.55;;;;;;;;;;4918208;29;20032;-30
2022/01/27 14:52:57;;;;;;;25.75;5.47;;;;;;;;;;4918292;29;20032;-31
2022/01/27 14:55:24;;;;;;;16.38;5.93;;;;;;;;;;4918056;29;20040;-30
2022/01/27 14:57:51;;;;;;;11.88;4.75;;;;;;;;;;4918105;29;20032;-31
2022/01/27 15:00:18;;;;;;;15.23;5.18;;;;;;;;;;4918437;29;20032;-30
2022/01/27 15:02:44;;;;;;;11.60;4.30;;;;;;;;;;4916815;29;20056;-31
2022/01/27 15:05:11;;;;;;;12.18;4.88;;;;;;;;;;4918240;29;20039;-30
2022/01/27 15:07:38;;;;;;;21.08;5.20;;;;;;;;;;4918351;29;20028;-31
2022/01/27 15:10:06;;;;;;;14.13;4.25;;;;;;;;;;4918006;29;20087;-31
2022/01/27 15:12:32;;;;;;;19.58;5.03;;;;;;;;;;4917901;29;20047;-30
2022/01/27 15:20:29;;;;;;;13.02;4.97;;;;;;;;;;4921728;29;20123;-32
2022/01/27 15:22:56;;;;;;;18.67;5.57;;;;;;;;;;4921792;29;20047;-31
2022/01/27 15:25:23;;;;;;;30.33;6.00;;;;;;;;;;4921782;29;20036;-32
2022/01/27 15:27:50;;;;;;;13.45;4.50;;;;;;;;;;4921424;29;20067;-33
2022/01/27 15:30:17;;;;;;;12.68;4.95;;;;;;;;;;4921691;29;20043;-31